Time;durP1;ratioP1;P1;durP2;ratioP2;P2;SDS_P1;SDS_P2;PMS_P1;PMS_P2;Temp;Humidity;BMP_temperature;BMP_pressure;BME280_temperature;BME280_humidity;BME280_pressure;Samples;Min_cycle;Max_cycle;Signal;HPM_P1;HPM_P2
2022/06/23 00:00:01;;;;;;;2.80;2.50;;;20.60;13.40;;;;;;5054174;28;20834;-75
2022/06/23 00:02:30;;;;;;;5.22;2.28;;;20.60;13.50;;;;;;5035288;28;20415;-74
2022/06/23 00:05:03;;;;;;;3.58;2.47;;;20.50;13.80;;;;;;5052388;28;20389;-75
2022/06/23 00:07:32;;;;;;;3.20;2.35;;;20.60;13.70;;;;;;5052737;28;20390;-75
2022/06/23 00:10:18;;;;;;;7.50;2.72;;;20.50;14.00;;;;;;5046816;28;20418;-74
2022/06/23 00:12:45;;;;;;;3.63;2.50;;;20.70;14.00;;;;;;5052742;28;20390;-74
2022/06/23 00:15:22;;;;;;;4.75;2.50;;;20.50;14.10;;;;;;5053552;28;20389;-74
2022/06/23 00:18:02;;;;;;;5.85;2.85;;;20.60;14.40;;;;;;5054731;28;20393;-76
2022/06/23 00:20:56;;;;;;;3.80;2.70;;;20.50;14.50;;;;;;5056607;28;20419;-75
2022/06/23 00:23:26;;;;;;;3.30;2.40;;;20.60;14.10;;;;;;5034984;28;20425;-74
2022/06/23 00:25:58;;;;;;;5.00;2.40;;;20.50;14.20;;;;;;5052556;28;20392;-75
2022/06/23 00:28:33;;;;;;;5.22;2.60;;;20.10;15.00;;;;;;5053065;28;20477;-72
2022/06/23 00:31:03;;;;;;;5.75;2.60;;;19.90;15.50;;;;;;5046351;28;20432;-74
2022/06/23 00:33:38;;;;;;;2.80;2.60;;;19.70;16.80;;;;;;5052059;28;20393;-76
2022/06/23 00:36:16;;;;;;;4.55;2.70;;;19.50;16.80;;;;;;5046774;28;20458;-73
2022/06/23 00:38:42;;;;;;;3.70;2.30;;;19.40;17.10;;;;;;5051808;28;20405;-76
2022/06/23 00:41:20;;;;;;;5.40;2.70;;;19.60;17.30;;;;;;5051934;28;20412;-76
2022/06/23 00:43:48;;;;;;;4.07;2.50;;;19.80;16.80;;;;;;5053985;28;20401;-76
2022/06/23 00:46:28;;;;;;;5.13;2.40;;;19.80;16.70;;;;;;5054456;28;20397;-74
2022/06/23 00:49:00;;;;;;;3.08;2.30;;;19.60;17.00;;;;;;5038161;28;20397;-76
2022/06/23 00:51:32;;;;;;;7.50;2.75;;;19.50;17.40;;;;;;5054288;28;20467;-74
2022/06/23 00:54:05;;;;;;;6.45;2.78;;;19.70;17.40;;;;;;5052296;28;20401;-74
2022/06/23 00:57:03;;;;;;;5.07;2.80;;;19.70;17.40;;;;;;5052210;28;20923;-74
2022/06/23 00:59:35;;;;;;;4.73;2.70;;;19.60;17.40;;;;;;5049710;28;20393;-74
2022/06/23 01:02:12;;;;;;;6.00;3.28;;;19.80;17.50;;;;;;5045380;28;20588;-75
2022/06/23 01:04:47;;;;;;;6.50;3.50;;;19.70;17.60;;;;;;5051942;28;20656;-75
2022/06/23 01:07:41;;;;;;;5.25;2.90;;;19.40;18.10;;;;;;5051911;28;20401;-75
2022/06/23 01:10:22;;;;;;;4.68;3.00;;;19.40;18.50;;;;;;5047881;28;20393;-75
2022/06/23 01:12:51;;;;;;;5.45;2.63;;;19.50;18.50;;;;;;5053946;28;20404;-75
2022/06/23 01:15:37;;;;;;;5.13;3.40;;;19.50;18.50;;;;;;5053806;28;20462;-74
2022/06/23 01:18:15;;;;;;;3.97;2.80;;;19.40;18.80;;;;;;5053017;28;20728;-74
2022/06/23 01:21:04;;;;;;;3.60;2.90;;;19.50;18.60;;;;;;5052925;28;20500;-75
2022/06/23 01:23:50;;;;;;;3.72;2.92;;;19.30;19.00;;;;;;5052358;28;20834;-74
2022/06/23 01:26:41;;;;;;;6.97;3.20;;;19.00;19.90;;;;;;5048308;28;20405;-74
2022/06/23 01:29:12;;;;;;;3.93;2.80;;;18.90;20.10;;;;;;5046200;28;20389;-73
2022/06/23 01:31:46;;;;;;;3.80;2.70;;;18.70;21.10;;;;;;5051056;28;20409;-76
2022/06/23 01:34:20;;;;;;;5.50;3.20;;;18.60;21.80;;;;;;5046877;28;20432;-74
2022/06/23 01:37:22;;;;;;;4.45;3.10;;;18.50;22.50;;;;;;5051699;28;20397;-75
2022/06/23 01:39:59;;;;;;;4.70;3.10;;;18.40;23.00;;;;;;5050832;28;20956;-74
2022/06/23 01:42:39;;;;;;;7.53;3.15;;;18.20;23.70;;;;;;5033697;28;20489;-76
2022/06/23 01:45:19;;;;;;;3.53;3.10;;;18.10;24.70;;;;;;5051609;28;20502;-74
2022/06/23 01:47:52;;;;;;;5.80;3.17;;;18.00;24.90;;;;;;5051718;28;20883;-75
2022/06/23 01:50:21;;;;;;;7.00;3.17;;;18.00;25.10;;;;;;5052082;28;20870;-75
2022/06/23 01:52:47;;;;;;;8.15;3.22;;;17.90;25.50;;;;;;5051314;28;20673;-75
2022/06/23 01:55:27;;;;;;;4.28;2.95;;;17.90;25.80;;;;;;5051699;28;20393;-74
2022/06/23 01:58:07;;;;;;;4.70;3.30;;;17.80;26.20;;;;;;5050644;28;20948;-75
2022/06/23 02:00:42;;;;;;;4.93;3.47;;;17.80;27.00;;;;;;5052659;28;20396;-75
2022/06/23 02:03:27;;;;;;;6.75;3.40;;;17.70;28.10;;;;;;5046579;28;20451;-74
2022/06/23 02:06:16;;;;;;;3.40;2.92;;;17.70;28.40;;;;;;5052034;28;20777;-75
2022/06/23 02:09:02;;;;;;;3.28;2.97;;;17.60;29.00;;;;;;5064846;28;20408;-75
2022/06/23 02:11:45;;;;;;;5.18;3.15;;;17.60;29.40;;;;;;5063855;28;20397;-74
2022/06/23 02:14:21;;;;;;;7.80;3.40;;;17.70;29.50;;;;;;5045960;28;20389;-75
2022/06/23 02:17:11;;;;;;;6.22;3.40;;;17.70;29.60;;;;;;5052195;28;20932;-74
2022/06/23 02:19:46;;;;;;;5.80;3.40;;;17.60;30.20;;;;;;5052464;28;20393;-75
2022/06/23 02:22:27;;;;;;;5.50;3.50;;;17.50;31.20;;;;;;5044864;28;20413;-75
2022/06/23 02:25:20;;;;;;;7.35;3.60;;;17.40;31.60;;;;;;5050765;28;20408;-75
2022/06/23 02:28:04;;;;;;;7.40;3.70;;;17.40;32.00;;;;;;5050681;28;20443;-74
2022/06/23 02:30:41;;;;;;;6.38;4.20;;;17.30;32.20;;;;;;5052130;28;20890;-74
2022/06/23 02:33:42;;;;;;;4.80;3.80;;;17.30;32.50;;;;;;5051650;28;20389;-75
2022/06/23 02:36:31;;;;;;;9.30;4.03;;;17.30;32.60;;;;;;5021237;28;20463;-76
2022/06/23 02:39:02;;;;;;;5.20;3.70;;;17.40;32.70;;;;;;5025171;28;20895;-75
2022/06/23 02:41:45;;;;;;;6.07;3.78;;;17.30;33.60;;;;;;5051023;28;20861;-76
2022/06/23 02:44:19;;;;;;;6.78;3.90;;;17.30;34.20;;;;;;5045279;28;20394;-76
2022/06/23 02:47:11;;;;;;;8.80;3.65;;;17.30;34.80;;;;;;5052467;28;20429;-74
2022/06/23 02:50:11;;;;;;;5.03;3.90;;;17.20;35.10;;;;;;5066837;28;20398;-75
2022/06/23 02:52:59;;;;;;;4.40;3.30;;;17.20;35.20;;;;;;5059065;28;20908;-75
2022/06/23 02:55:53;;;;;;;5.78;3.60;;;17.00;36.00;;;;;;5051108;28;20393;-74
2022/06/23 02:58:25;;;;;;;7.28;3.60;;;17.00;36.50;;;;;;5055039;28;20393;-73
2022/06/23 03:01:01;;;;;;;4.88;3.55;;;17.00;36.80;;;;;;5054104;28;20405;-75
2022/06/23 03:03:38;;;;;;;4.80;3.30;;;16.90;36.80;;;;;;5054731;28;20881;-75
2022/06/23 03:06:22;;;;;;;6.15;3.60;;;16.90;37.00;;;;;;5066345;28;20895;-75
2022/06/23 03:09:05;;;;;;;4.50;3.80;;;16.90;36.90;;;;;;5054467;28;20396;-75
2022/06/23 03:11:54;;;;;;;6.50;3.60;;;16.90;37.10;;;;;;5054153;28;20735;-76
2022/06/23 03:14:37;;;;;;;6.70;3.63;;;16.90;37.40;;;;;;5057081;28;20389;-74
2022/06/23 03:17:29;;;;;;;6.40;3.40;;;16.90;38.10;;;;;;5055116;28;20753;-76
2022/06/23 03:20:09;;;;;;;4.43;3.30;;;16.80;38.80;;;;;;5054292;28;20909;-75
2022/06/23 03:22:45;;;;;;;4.07;3.72;;;16.80;39.70;;;;;;5054028;28;20409;-76
2022/06/23 03:25:28;;;;;;;3.72;3.30;;;16.70;40.10;;;;;;5047769;28;20393;-75
2022/06/23 03:28:12;;;;;;;5.95;3.30;;;16.70;40.80;;;;;;5053954;28;20411;-74
2022/06/23 03:30:40;;;;;;;5.20;3.97;;;16.70;41.10;;;;;;5054368;28;20440;-75
2022/06/23 03:33:20;;;;;;;7.28;4.57;;;16.70;42.20;;;;;;5053716;28;20409;-75
2022/06/23 03:35:55;;;;;;;4.25;3.85;;;16.80;41.30;;;;;;5052738;28;20757;-74
2022/06/23 03:41:37;;;;;;;5.30;4.15;;;16.80;41.30;;;;;;5049344;28;20412;-75
2022/06/23 03:44:31;;;;;;;7.25;3.90;;;16.80;42.30;;;;;;5052941;28;20731;-76
2022/06/23 03:47:14;;;;;;;6.68;4.18;;;16.90;42.20;;;;;;5035530;28;21000;-73
2022/06/23 03:50:04;;;;;;;12.63;4.30;;;17.00;40.90;;;;;;5053886;28;20564;-76
2022/06/23 03:52:44;;;;;;;7.18;4.20;;;17.00;40.10;;;;;;5049383;28;20389;-76
2022/06/23 03:55:38;;;;;;;5.05;4.10;;;17.00;40.40;;;;;;5053464;28;20455;-75
2022/06/23 03:58:17;;;;;;;8.80;3.90;;;17.00;40.00;;;;;;5052525;28;20781;-75
2022/06/23 04:01:12;;;;;;;5.72;4.15;;;17.00;40.00;;;;;;5053333;28;20408;-75
2022/06/23 04:03:43;;;;;;;5.90;4.00;;;17.00;39.70;;;;;;5049872;28;20398;-75
2022/06/23 04:06:23;;;;;;;6.13;4.13;;;17.10;39.40;;;;;;5053189;28;20385;-74
2022/06/23 04:08:53;;;;;;;8.67;4.27;;;17.10;39.00;;;;;;5052112;28;20855;-75
2022/06/23 04:14:08;;;;;;;9.38;4.10;;;17.40;37.70;;;;;;5051378;28;20977;-74
2022/06/23 04:16:34;;;;;;;6.78;4.50;;;17.50;36.70;;;;;;5052240;28;20436;-75
2022/06/23 04:19:10;;;;;;;8.40;4.25;;;17.60;35.80;;;;;;5051406;28;20401;-75
2022/06/23 04:21:45;;;;;;;6.70;4.30;;;17.80;35.60;;;;;;5051623;28;20508;-75
2022/06/23 04:24:19;;;;;;;5.22;3.90;;;17.90;35.00;;;;;;5051791;28;20397;-75
2022/06/23 04:26:49;;;;;;;13.00;5.25;;;18.00;34.30;;;;;;5051342;28;20403;-74
2022/06/23 04:29:34;;;;;;;7.37;4.13;;;18.20;34.10;;;;;;5052940;28;20420;-74
2022/06/23 04:32:20;;;;;;;8.57;4.13;;;18.30;33.60;;;;;;5050676;28;20404;-73
2022/06/23 04:34:54;;;;;;;6.93;4.15;;;18.50;32.20;;;;;;5051455;28;20398;-74
2022/06/23 04:37:45;;;;;;;9.75;4.50;;;18.60;31.60;;;;;;5045701;28;20476;-74
2022/06/23 04:40:17;;;;;;;7.22;4.57;;;18.70;31.40;;;;;;5050956;28;20932;-75
2022/06/23 04:43:12;;;;;;;10.05;4.28;;;18.70;31.00;;;;;;5050604;28;20413;-75
2022/06/23 04:45:52;;;;;;;12.35;4.60;;;18.80;30.80;;;;;;5048064;28;20397;-76
2022/06/23 04:48:45;;;;;;;7.13;4.20;;;18.90;30.00;;;;;;5045149;28;20393;-74
2022/06/23 04:51:38;;;;;;;7.28;4.10;;;19.10;29.00;;;;;;5039195;28;20405;-75
2022/06/23 04:54:09;;;;;;;6.80;4.70;;;19.20;28.90;;;;;;5050952;28;20420;-74
2022/06/23 04:56:38;;;;;;;9.98;4.82;;;19.20;29.20;;;;;;5034504;28;20888;-74
2022/06/23 04:59:35;;;;;;;6.78;4.30;;;19.30;28.50;;;;;;5051268;28;20440;-78
2022/06/23 05:02:15;;;;;;;8.02;3.95;;;19.40;28.30;;;;;;5031652;28;20502;-74
2022/06/23 05:04:44;;;;;;;5.28;3.90;;;19.50;28.00;;;;;;5050059;28;20452;-75
2022/06/23 05:07:26;;;;;;;5.10;4.15;;;19.60;27.60;;;;;;5031570;28;20394;-76
2022/06/23 05:09:57;;;;;;;6.93;4.30;;;19.70;27.30;;;;;;5048810;28;20442;-74
2022/06/23 05:12:34;;;;;;;7.07;3.65;;;19.80;27.20;;;;;;5044206;28;20861;-74
2022/06/23 05:15:17;;;;;;;5.63;3.70;;;19.80;27.10;;;;;;5049312;28;20758;-77
2022/06/23 05:17:57;;;;;;;8.43;3.80;;;19.90;26.80;;;;;;5050602;28;20394;-74
2022/06/23 05:20:50;;;;;;;10.48;3.53;;;20.10;25.40;;;;;;5051402;28;20447;-75
2022/06/23 05:23:23;;;;;;;7.13;4.47;;;20.30;25.00;;;;;;5050486;28;20401;-76
2022/06/23 05:25:51;;;;;;;5.78;4.18;;;20.30;24.80;;;;;;5050503;28;20397;-75
2022/06/23 05:28:30;;;;;;;6.30;3.80;;;20.40;24.70;;;;;;5050827;28;20389;-77
2022/06/23 05:30:59;;;;;;;6.90;4.40;;;20.50;24.90;;;;;;5049989;28;20447;-75
2022/06/23 05:33:30;;;;;;;9.53;4.47;;;20.60;24.20;;;;;;5051261;28;20417;-75
2022/06/23 05:36:03;;;;;;;6.30;4.13;;;20.70;24.10;;;;;;5050748;28;20909;-74
2022/06/23 05:38:44;;;;;;;4.60;3.70;;;20.80;24.40;;;;;;5050275;28;20397;-76
2022/06/23 05:41:31;;;;;;;11.38;4.38;;;20.90;23.60;;;;;;5049501;28;20459;-73
2022/06/23 05:43:58;;;;;;;11.05;4.10;;;21.00;23.10;;;;;;5049261;28;20397;-73
2022/06/23 05:46:26;;;;;;;8.98;4.07;;;21.20;22.80;;;;;;5055445;28;20868;-75
2022/06/23 05:49:35;;;;;;;7.85;3.70;;;21.30;22.20;;;;;;5050812;28;20393;-72
2022/06/23 05:52:14;;;;;;;9.70;4.13;;;21.40;22.70;;;;;;5048661;28;20401;-73
2022/06/23 05:54:44;;;;;;;7.03;4.00;;;21.50;23.00;;;;;;5049713;28;20898;-73
2022/06/23 05:57:19;;;;;;;12.52;5.90;;;21.60;22.20;;;;;;5049994;28;20455;-74
2022/06/23 05:59:45;;;;;;;5.60;3.60;;;21.80;22.10;;;;;;5050214;28;20390;-73
2022/06/23 06:02:20;;;;;;;5.03;3.70;;;21.90;21.30;;;;;;5053984;28;20747;-74
2022/06/23 06:04:51;;;;;;;8.00;3.70;;;22.00;21.00;;;;;;5053361;28;20402;-75
2022/06/23 06:07:21;;;;;;;6.78;3.30;;;22.00;20.50;;;;;;5051754;28;20405;-73
2022/06/23 06:09:48;;;;;;;8.13;4.20;;;22.10;20.10;;;;;;5037052;28;20392;-72
2022/06/23 06:12:21;;;;;;;6.70;3.83;;;22.30;20.00;;;;;;5050339;28;20412;-74
2022/06/23 06:14:54;;;;;;;7.50;4.45;;;22.40;20.00;;;;;;5048489;28;20466;-74
2022/06/23 06:17:23;;;;;;;9.75;4.45;;;22.60;19.60;;;;;;5055821;28;20401;-74
2022/06/23 06:19:51;;;;;;;18.85;4.43;;;22.60;20.00;;;;;;5057055;28;20391;-74
2022/06/23 06:22:51;;;;;;;8.70;4.00;;;22.70;19.70;;;;;;5052164;28;20440;-73
2022/06/23 06:25:32;;;;;;;9.33;4.10;;;22.80;19.40;;;;;;5051123;28;20440;-75
2022/06/23 06:28:10;;;;;;;10.17;3.97;;;22.90;19.40;;;;;;5056802;28;20446;-73
2022/06/23 06:30:40;;;;;;;10.88;4.53;;;23.00;19.30;;;;;;5051428;28;20441;-73
2022/06/23 06:33:15;;;;;;;11.40;4.40;;;23.10;18.90;;;;;;5053634;28;20393;-74
2022/06/23 06:35:43;;;;;;;5.38;4.00;;;23.10;18.90;;;;;;5057567;28;20397;-73
2022/06/23 06:38:15;;;;;;;7.72;4.50;;;23.10;19.40;;;;;;5054012;28;20411;-73
2022/06/23 06:40:45;;;;;;;7.13;3.80;;;23.20;19.20;;;;;;5053476;28;20475;-74
2022/06/23 06:43:15;;;;;;;9.95;4.30;;;23.30;19.50;;;;;;5058005;28;20412;-74
2022/06/23 06:45:41;;;;;;;6.93;4.70;;;23.50;19.40;;;;;;5054407;28;20893;-73
2022/06/23 06:48:20;;;;;;;6.70;4.23;;;23.50;19.30;;;;;;5054897;28;20441;-73
2022/06/23 06:50:51;;;;;;;13.38;4.00;;;23.60;19.20;;;;;;5057101;28;20402;-73
2022/06/23 06:53:31;;;;;;;8.43;4.50;;;23.70;19.50;;;;;;5057350;28;20404;-74
2022/06/23 06:56:05;;;;;;;12.90;5.30;;;23.80;19.60;;;;;;5055439;28;20397;-74
2022/06/23 06:58:53;;;;;;;8.63;4.75;;;23.80;19.80;;;;;;5057433;28;20404;-73
2022/06/23 07:01:22;;;;;;;12.15;4.70;;;23.90;19.70;;;;;;5056369;28;20416;-72
2022/06/23 07:03:50;;;;;;;9.57;4.57;;;24.00;19.50;;;;;;5062696;28;20405;-72
2022/06/23 07:06:27;;;;;;;11.70;4.53;;;24.10;19.60;;;;;;5058309;28;20399;-74
2022/06/23 07:09:20;;;;;;;8.82;4.63;;;24.10;19.60;;;;;;5055399;28;20757;-75
2022/06/23 07:11:53;;;;;;;11.63;4.95;;;24.10;19.50;;;;;;5059719;28;20411;-77
2022/06/23 07:14:19;;;;;;;9.73;4.60;;;24.30;19.80;;;;;;5056313;28;20437;-73
2022/06/23 07:16:58;;;;;;;14.68;4.57;;;24.40;19.60;;;;;;5058115;28;20435;-75
2022/06/23 07:19:38;;;;;;;14.48;4.72;;;24.50;19.60;;;;;;5056178;28;20409;-74
2022/06/23 07:22:09;;;;;;;10.05;4.65;;;24.60;19.20;;;;;;5058273;28;20415;-74
2022/06/23 07:24:52;;;;;;;6.32;4.50;;;24.70;19.20;;;;;;5057967;28;20461;-75
2022/06/23 07:27:36;;;;;;;10.02;4.85;;;24.70;19.00;;;;;;5057055;28;20400;-74
2022/06/23 07:30:16;;;;;;;12.80;4.50;;;24.70;19.00;;;;;;5062018;28;20478;-77
2022/06/23 07:32:57;;;;;;;12.38;4.80;;;24.80;18.70;;;;;;5061513;28;20407;-75
2022/06/23 07:35:48;;;;;;;14.23;4.28;;;24.90;19.50;;;;;;5057104;28;20397;-74
2022/06/23 07:38:16;;;;;;;11.50;4.40;;;25.00;18.40;;;;;;5053908;28;20961;-76
2022/06/23 07:40:52;;;;;;;12.75;4.47;;;25.00;18.30;;;;;;5052505;28;20484;-72
2022/06/23 07:43:27;;;;;;;13.43;4.50;;;25.00;18.50;;;;;;5052254;28;20500;-74
2022/06/23 07:45:56;;;;;;;10.75;4.70;;;25.10;18.80;;;;;;5054778;28;20392;-72
2022/06/23 07:48:23;;;;;;;14.43;4.65;;;25.20;18.60;;;;;;5055487;28;20429;-73
2022/06/23 07:50:49;;;;;;;8.32;4.85;;;25.30;18.40;;;;;;5058610;28;20477;-75
2022/06/23 07:53:25;;;;;;;11.03;4.90;;;25.40;18.40;;;;;;5054045;28;20425;-72
2022/06/23 07:55:51;;;;;;;12.68;4.88;;;25.60;18.40;;;;;;5053299;28;20389;-74
2022/06/23 07:58:28;;;;;;;8.77;4.50;;;25.60;18.30;;;;;;5052843;28;20664;-72
2022/06/23 08:01:02;;;;;;;9.77;5.82;;;25.60;18.30;;;;;;5052264;28;20979;-73
2022/06/23 08:03:36;;;;;;;9.53;5.30;;;25.60;18.80;;;;;;5053142;28;20405;-72
2022/06/23 08:06:06;;;;;;;11.40;5.63;;;25.60;18.90;;;;;;5052885;28;20431;-71
2022/06/23 08:08:35;;;;;;;12.90;4.90;;;25.60;19.00;;;;;;5046731;28;20897;-72
2022/06/23 08:13:55;;;;;;;13.98;5.60;;;25.80;18.80;;;;;;5048892;28;20479;-73
2022/06/23 08:19:11;;;;;;;8.50;6.10;;;26.00;19.40;;;;;;5052233;28;20494;-72
2022/06/23 08:21:47;;;;;;;8.45;5.70;;;26.10;18.70;;;;;;5052349;28;20409;-71
2022/06/23 08:24:20;;;;;;;9.23;5.78;;;26.10;19.00;;;;;;5051615;28;20418;-71
2022/06/23 08:26:52;;;;;;;11.57;5.95;;;26.30;18.50;;;;;;5051538;28;20454;-72
2022/06/23 08:29:23;;;;;;;9.65;5.10;;;26.40;18.40;;;;;;5051042;28;20417;-71
2022/06/23 08:31:48;;;;;;;12.80;5.60;;;26.40;18.10;;;;;;5051200;28;20389;-71
2022/06/23 08:34:14;;;;;;;9.23;5.68;;;26.50;18.00;;;;;;5051572;28;20404;-75
2022/06/23 08:36:46;;;;;;;10.20;5.67;;;26.50;17.20;;;;;;5051722;28;20393;-73
2022/06/23 08:39:27;;;;;;;11.68;6.40;;;26.60;17.60;;;;;;5051135;28;20401;-74
2022/06/23 08:41:56;;;;;;;10.38;5.80;;;26.60;17.50;;;;;;5051075;28;20508;-74
2022/06/23 08:44:36;;;;;;;13.85;5.80;;;26.50;17.40;;;;;;5050462;28;20398;-71
2022/06/23 08:47:41;;;;;;;21.10;6.80;;;26.60;19.60;;;;;;5051365;28;20485;-70
2022/06/23 08:50:11;;;;;;;12.73;6.60;;;26.60;20.60;;;;;;5054344;28;20506;-72
2022/06/23 08:52:58;;;;;;;17.83;6.23;;;26.60;28.50;;;;;;5053693;28;20515;-72
2022/06/23 08:55:27;;;;;;;9.80;5.40;;;26.30;25.60;;;;;;5051311;28;20417;-76
2022/06/23 08:58:13;;;;;;;14.13;6.20;;;26.20;19.50;;;;;;5052802;28;20435;-75
2022/06/23 09:01:02;;;;;;;10.00;6.30;;;26.30;19.00;;;;;;5047982;28;20444;-77
2022/06/23 09:03:46;;;;;;;12.17;5.57;;;26.40;18.90;;;;;;5054962;28;20429;-75
2022/06/23 09:06:17;;;;;;;11.37;5.73;;;26.60;17.90;;;;;;5054931;28;20989;-74
2022/06/23 09:09:07;;;;;;;13.23;5.63;;;26.80;17.80;;;;;;5036202;28;20456;-72
2022/06/23 09:11:36;;;;;;;11.73;5.47;;;26.90;17.50;;;;;;5045688;28;20809;-72
2022/06/23 09:14:21;;;;;;;10.13;5.70;;;27.10;16.40;;;;;;5051847;28;20587;-72
2022/06/23 09:17:08;;;;;;;7.33;5.30;;;27.30;16.20;;;;;;5047091;28;20458;-73
2022/06/23 09:19:53;;;;;;;10.90;6.53;;;27.40;14.50;;;;;;5052102;28;20945;-75
2022/06/23 09:22:40;;;;;;;9.17;5.80;;;27.50;14.50;;;;;;5052537;28;20476;-77
2022/06/23 09:25:12;;;;;;;8.73;5.70;;;27.50;13.80;;;;;;5052505;28;20773;-72
2022/06/23 09:28:08;;;;;;;11.63;5.90;;;27.60;14.00;;;;;;5045904;28;20421;-71
2022/06/23 09:30:52;;;;;;;6.40;5.40;;;27.60;13.80;;;;;;5051720;28;20508;-71
2022/06/23 09:33:46;;;;;;;6.73;5.13;;;27.70;13.50;;;;;;5051581;28;20420;-72
2022/06/23 09:36:34;;;;;;;6.30;5.30;;;27.80;13.00;;;;;;5024394;28;20425;-74
2022/06/23 09:39:16;;;;;;;25.50;5.77;;;27.80;13.00;;;;;;5051805;28;20559;-71
2022/06/23 09:41:56;;;;;;;9.37;6.00;;;28.00;12.70;;;;;;5046132;28;20521;-73
2022/06/23 09:44:38;;;;;;;14.20;5.00;;;28.10;13.30;;;;;;5050853;28;20495;-72
2022/06/23 09:47:40;;;;;;;10.93;5.43;;;28.30;13.20;;;;;;5051732;28;20418;-71
2022/06/23 09:50:34;;;;;;;7.60;5.23;;;28.40;12.50;;;;;;5049669;28;20474;-73
2022/06/23 09:53:05;;;;;;;9.43;5.40;;;28.40;12.00;;;;;;5052152;28;20425;-72
2022/06/23 09:56:14;;;;;;;8.97;5.63;;;28.40;12.30;;;;;;5051810;28;20520;-72
2022/06/23 09:58:57;;;;;;;8.40;5.37;;;28.40;12.30;;;;;;5046541;28;20413;-73
2022/06/23 10:01:41;;;;;;;8.47;5.10;;;28.60;12.20;;;;;;5055828;28;20468;-73
2022/06/23 10:04:36;;;;;;;7.83;5.00;;;28.60;11.30;;;;;;5058858;28;20420;-72
2022/06/23 10:07:29;;;;;;;10.70;5.50;;;28.50;12.10;;;;;;5036526;28;20820;-72
2022/06/23 10:10:22;;;;;;;12.83;5.40;;;28.70;11.80;;;;;;5054633;28;20417;-72
2022/06/23 10:12:53;;;;;;;10.50;5.27;;;28.70;11.40;;;;;;5053746;28;20784;-72
2022/06/23 10:15:44;;;;;;;10.23;5.90;;;28.90;11.10;;;;;;5059453;28;20447;-72
2022/06/23 10:18:31;;;;;;;8.10;5.87;;;28.90;11.00;;;;;;5041550;28;20433;-72
2022/06/23 10:21:18;;;;;;;9.47;5.47;;;29.00;11.40;;;;;;5060271;28;20467;-73
2022/06/23 10:24:20;;;;;;;11.37;4.70;;;29.10;10.20;;;;;;5053950;28;20504;-73
2022/06/23 10:26:55;;;;;;;6.90;4.67;;;29.10;10.80;;;;;;5053886;28;20417;-73
2022/06/23 10:29:56;;;;;;;12.40;5.27;;;29.10;10.80;;;;;;5058600;28;20420;-73
2022/06/23 10:32:41;;;;;;;8.90;4.93;;;29.10;10.90;;;;;;5022024;28;20502;-71
2022/06/23 10:35:18;;;;;;;9.30;4.67;;;29.20;10.50;;;;;;5059089;28;20413;-73
2022/06/23 10:38:20;;;;;;;10.10;5.63;;;29.20;10.40;;;;;;5052790;28;20512;-72
2022/06/23 10:40:58;;;;;;;9.60;5.57;;;29.30;10.50;;;;;;5052505;28;20452;-72
2022/06/23 10:43:40;;;;;;;6.70;5.80;;;29.30;10.40;;;;;;5057697;28;20421;-72
2022/06/23 10:46:31;;;;;;;8.17;5.33;;;29.30;10.50;;;;;;5057596;28;20948;-72
2022/06/23 10:49:30;;;;;;;7.30;5.83;;;29.40;10.50;;;;;;5053133;28;20433;-72
2022/06/23 10:52:05;;;;;;;5.50;4.90;;;29.50;9.90;;;;;;5057712;28;20452;-72
2022/06/23 10:54:45;;;;;;;5.53;5.00;;;29.60;10.40;;;;;;5050275;28;20474;-72
2022/06/23 10:57:38;;;;;;;10.93;5.37;;;29.60;10.60;;;;;;5058104;28;20425;-72
2022/06/23 11:00:11;;;;;;;11.77;5.60;;;29.60;10.00;;;;;;5054371;28;20431;-72
2022/06/23 11:02:57;;;;;;;13.70;4.87;;;29.90;10.30;;;;;;5057318;28;20460;-72
2022/06/23 11:05:53;;;;;;;12.03;5.73;;;30.00;10.20;;;;;;5056964;28;20429;-73
2022/06/23 11:08:39;;;;;;;14.93;5.57;;;30.00;9.70;;;;;;5057881;28;20435;-73
2022/06/23 11:11:53;;;;;;;9.47;4.57;;;30.10;9.50;;;;;;5058036;28;20441;-72
2022/06/23 11:14:25;;;;;;;8.30;5.07;;;30.10;9.30;;;;;;5034906;28;20575;-73
2022/06/23 11:17:09;;;;;;;7.93;5.33;;;30.20;9.80;;;;;;5054672;28;20429;-72
2022/06/23 11:19:52;;;;;;;12.73;5.10;;;30.20;8.80;;;;;;5053812;28;20432;-72
2022/06/23 11:22:57;;;;;;;6.13;5.57;;;30.20;9.20;;;;;;5054060;28;21002;-73
2022/06/23 11:25:52;;;;;;;7.30;5.20;;;30.30;8.70;;;;;;5066359;28;20440;-71
2022/06/23 11:28:51;;;;;;;7.30;4.50;;;30.50;8.90;;;;;;5053683;28;20470;-71
2022/06/23 11:31:23;;;;;;;6.50;5.03;;;30.50;7.80;;;;;;5053889;28;20800;-72
2022/06/23 11:34:34;;;;;;;7.20;5.47;;;30.60;8.20;;;;;;5048802;28;20711;-73
2022/06/23 11:37:14;;;;;;;11.00;5.60;;;30.70;8.70;;;;;;5049999;28;20417;-70
2022/06/23 11:40:06;;;;;;;9.70;5.00;;;30.80;8.00;;;;;;5053391;28;20496;-71
2022/06/23 11:42:48;;;;;;;16.13;5.13;;;30.90;6.80;;;;;;5070283;22;20488;-72
2022/06/23 11:45:51;;;;;;;8.27;5.40;;;30.80;6.70;;;;;;5057337;28;20520;-72
2022/06/23 11:48:31;;;;;;;13.50;5.43;;;30.90;7.40;;;;;;5056743;28;20909;-72
2022/06/23 11:51:34;;;;;;;10.83;4.77;;;31.00;7.30;;;;;;5056077;28;20445;-72
2022/06/23 11:54:11;;;;;;;6.40;4.77;;;31.00;7.90;;;;;;5069362;28;20773;-71
2022/06/23 11:56:52;;;;;;;14.63;5.30;;;31.10;6.90;;;;;;5072375;28;20416;-72
2022/06/23 11:59:45;;;;;;;7.90;4.27;;;31.20;7.00;;;;;;5073264;28;20405;-72
2022/06/23 12:02:10;;;;;;;9.13;4.97;;;31.20;6.40;;;;;;5070434;28;20456;-73
2022/06/23 12:05:06;;;;;;;8.33;4.77;;;31.40;6.50;;;;;;5072127;28;20533;-73
2022/06/23 12:07:37;;;;;;;9.97;4.87;;;31.40;5.90;;;;;;5073156;28;20278;-73
2022/06/23 12:10:22;;;;;;;13.47;5.03;;;31.40;6.50;;;;;;5072973;28;20511;-72
2022/06/23 12:12:51;;;;;;;4.77;4.33;;;31.50;6.10;;;;;;5072899;28;20505;-73
2022/06/23 12:15:21;;;;;;;6.10;4.80;;;31.60;6.40;;;;;;5072678;28;20419;-72
2022/06/23 12:17:55;;;;;;;8.73;4.70;;;31.70;6.50;;;;;;5048424;28;20469;-74
2022/06/23 12:20:28;;;;;;;11.83;5.30;;;31.80;5.60;;;;;;5072605;28;20540;-72
2022/06/23 12:23:18;;;;;;;8.83;4.80;;;31.80;5.90;;;;;;5067152;28;20551;-72
2022/06/23 12:26:07;;;;;;;10.13;5.50;;;31.80;5.40;;;;;;5072655;28;20944;-73
2022/06/23 12:28:48;;;;;;;9.13;5.03;;;31.90;5.60;;;;;;5072334;28;20431;-72
2022/06/23 12:31:30;;;;;;;5.93;5.03;;;32.00;6.00;;;;;;5072451;28;20420;-73
2022/06/23 12:34:14;;;;;;;7.83;5.10;;;31.90;6.30;;;;;;5068690;28;20528;-74
2022/06/23 12:37:21;;;;;;;10.07;5.10;;;32.10;5.80;;;;;;5071746;28;20446;-73
2022/06/23 12:39:55;;;;;;;8.97;4.57;;;32.20;5.20;;;;;;5052764;28;20823;-73
2022/06/23 12:42:36;;;;;;;7.13;3.97;;;32.30;5.10;;;;;;5072585;28;20526;-74
2022/06/23 12:45:37;;;;;;;8.07;4.50;;;32.30;5.20;;;;;;5070879;28;20602;-73
2022/06/23 12:48:12;;;;;;;8.47;4.70;;;32.40;5.00;;;;;;5076751;28;21384;-73
2022/06/23 12:50:50;;;;;;;15.47;5.17;;;32.70;4.70;;;;;;5075252;28;20888;-73
2022/06/23 12:53:48;;;;;;;7.03;4.60;;;32.70;4.70;;;;;;5053265;28;20823;-73
2022/06/23 12:56:44;;;;;;;6.20;4.73;;;32.70;4.20;;;;;;5053627;28;20436;-75
2022/06/23 12:59:39;;;;;;;6.43;4.37;;;32.50;4.40;;;;;;5057085;28;20961;-73
2022/06/23 13:02:43;;;;;;;5.53;4.57;;;32.20;4.60;;;;;;5058874;28;20520;-73
2022/06/23 13:05:32;;;;;;;5.63;4.27;;;31.80;4.80;;;;;;5067207;28;20968;-72
2022/06/23 13:08:34;;;;;;;10.30;5.13;;;32.00;5.00;;;;;;5069356;28;20460;-76
2022/06/23 13:11:12;;;;;;;6.70;4.57;;;32.10;5.20;;;;;;5027850;28;20488;-73
2022/06/23 13:13:48;;;;;;;5.20;4.33;;;32.20;4.20;;;;;;5060952;28;20433;-73
2022/06/23 13:16:22;;;;;;;6.13;4.20;;;32.30;4.90;;;;;;5076274;28;20407;-75
2022/06/23 13:18:58;;;;;;;4.00;3.33;;;32.50;4.00;;;;;;5070484;28;20408;-73
2022/06/23 13:21:28;;;;;;;5.37;4.40;;;32.40;3.50;;;;;;5070932;28;20815;-77
2022/06/23 13:24:08;;;;;;;9.40;3.80;;;32.90;3.10;;;;;;5074727;28;20428;-75
2022/06/23 13:26:41;;;;;;;9.67;3.57;;;33.30;2.00;;;;;;5080226;28;20464;-76
2022/06/23 13:29:15;;;;;;;7.00;4.07;;;33.40;2.00;;;;;;5081710;28;20499;-77
2022/06/23 13:31:49;;;;;;;8.53;4.80;;;33.80;1.30;;;;;;5076637;28;20476;-76
2022/06/23 13:34:29;;;;;;;5.50;4.20;;;34.60;1.00;;;;;;5081107;28;20421;-76
2022/06/23 13:37:07;;;;;;;5.03;4.00;;;35.30;1.00;;;;;;5051695;28;20456;-76
2022/06/23 13:40:00;;;;;;;6.60;4.17;;;36.10;1.00;;;;;;5055877;28;20536;-76
2022/06/23 13:42:32;;;;;;;10.83;3.83;;;35.70;1.00;;;;;;5073042;28;20531;-76
2022/06/23 13:45:04;;;;;;;4.60;3.20;;;34.90;1.00;;;;;;5073435;28;20417;-75
2022/06/23 13:47:45;;;;;;;7.90;3.67;;;34.90;1.00;;;;;;5054658;28;20477;-76
2022/06/23 13:50:36;;;;;;;4.77;3.40;;;35.10;1.00;;;;;;5073308;28;20408;-78
2022/06/23 13:53:07;;;;;;;7.73;3.60;;;34.90;1.00;;;;;;5080922;28;20441;-76
2022/06/23 13:55:40;;;;;;;4.33;3.90;;;35.30;1.00;;;;;;5080331;28;20428;-77
2022/06/23 13:58:37;;;;;;;5.13;4.10;;;36.00;1.00;;;;;;5080633;28;20511;-76
2022/06/23 14:01:18;;;;;;;6.30;3.33;;;36.60;1.00;;;;;;5061878;28;20443;-76
2022/06/23 14:04:17;;;;;;;6.90;4.33;;;36.30;1.00;;;;;;5074478;28;20445;-76